Time;durP1;ratioP1;P1;durP2;ratioP2;P2;SDS_P1;SDS_P2;PMS_P1;PMS_P2;Temp;Humidity;BMP_temperature;BMP_pressure;BME280_temperature;BME280_humidity;BME280_pressure;Samples;Min_cycle;Max_cycle;Signal;HPM_P1;HPM_P2
2021/12/11 00:01:55;;;;;;;19.25;17.35;;;;;;;;;;5058763;28;24415;-56
2021/12/11 00:04:29;;;;;;;18.80;17.00;;;;;;;;;;5059813;28;24547;-56
2021/12/11 00:06:55;;;;;;;18.83;16.93;;;;;;;;;;5053012;28;24426;-56
2021/12/11 00:09:23;;;;;;;20.48;18.38;;;;;;;;;;5061095;28;24816;-57
2021/12/11 00:11:53;;;;;;;19.83;17.83;;;;;;;;;;5058734;28;24422;-57
2021/12/11 00:14:20;;;;;;;19.30;17.40;;;;;;;;;;5063236;28;24417;-57
2021/12/11 00:16:45;;;;;;;19.20;17.40;;;;;;;;;;5059698;28;24423;-57
2021/12/11 00:19:16;;;;;;;19.80;17.90;;;;;;;;;;5056631;28;24427;-57
2021/12/11 00:21:41;;;;;;;19.17;17.27;;;;;;;;;;5061142;28;24415;-57
2021/12/11 00:24:09;;;;;;;19.75;17.65;;;;;;;;;;5061009;28;24979;-57
2021/12/11 00:26:35;;;;;;;20.67;18.57;;;;;;;;;;5060912;28;24422;-57
2021/12/11 00:29:00;;;;;;;20.33;18.25;;;;;;;;;;5056827;28;24789;-57
2021/12/11 00:31:26;;;;;;;21.00;18.80;;;;;;;;;;5045654;28;24424;-57
2021/12/11 00:33:52;;;;;;;20.50;18.40;;;;;;;;;;5057547;28;24545;-58
2021/12/11 00:36:19;;;;;;;19.87;17.87;;;;;;;;;;5061538;28;24546;-58
2021/12/11 00:38:47;;;;;;;20.48;18.35;;;;;;;;;;5062166;28;24457;-58
2021/12/11 00:41:14;;;;;;;20.55;18.55;;;;;;;;;;5053083;28;24871;-58
2021/12/11 00:43:40;;;;;;;20.45;18.25;;;;;;;;;;5053959;28;24418;-57
2021/12/11 00:46:08;;;;;;;23.23;20.88;;;;;;;;;;5057243;28;24442;-57
2021/12/11 00:48:34;;;;;;;20.92;18.90;;;;;;;;;;5055428;28;24583;-57
2021/12/11 00:51:01;;;;;;;22.15;19.95;;;;;;;;;;5053361;28;24518;-58
2021/12/11 00:53:47;;;;;;;21.20;19.00;;;;;;;;;;5055972;28;24899;-57
2021/12/11 00:56:15;;;;;;;20.10;18.10;;;;;;;;;;5050799;28;24508;-57
2021/12/11 00:58:41;;;;;;;19.58;17.67;;;;;;;;;;5051813;28;24546;-57
2021/12/11 01:01:06;;;;;;;18.77;16.98;;;;;;;;;;5052910;28;24419;-57
2021/12/11 01:03:39;;;;;;;19.02;17.13;;;;;;;;;;5055761;28;24414;-58
2021/12/11 01:06:09;;;;;;;19.27;17.27;;;;;;;;;;5060116;28;24411;-58
2021/12/11 01:08:38;;;;;;;18.43;16.43;;;;;;;;;;5051671;28;24613;-59
2021/12/11 01:11:07;;;;;;;18.45;16.65;;;;;;;;;;5053905;28;24887;-58
2021/12/11 01:13:34;;;;;;;20.38;18.02;;;;;;;;;;5053319;28;24425;-58
2021/12/11 01:16:05;;;;;;;18.40;16.50;;;;;;;;;;5058617;28;25011;-57
2021/12/11 01:18:36;;;;;;;19.70;17.70;;;;;;;;;;5054716;28;24443;-58
2021/12/11 01:21:25;;;;;;;18.40;16.50;;;;;;;;;;5056230;28;24547;-58
2021/12/11 01:26:32;;;;;;;18.17;16.38;;;;;;;;;;5049624;28;24494;-58
2021/12/11 01:28:58;;;;;;;19.35;17.35;;;;;;;;;;5058811;28;24419;-58
2021/12/11 01:31:23;;;;;;;19.20;17.20;;;;;;;;;;5053315;28;24589;-58
2021/12/11 01:33:50;;;;;;;18.20;16.40;;;;;;;;;;5051678;28;24976;-58
2021/12/11 01:36:15;;;;;;;19.27;17.37;;;;;;;;;;5060393;28;24414;-58
2021/12/11 01:38:41;;;;;;;18.83;16.93;;;;;;;;;;5061103;28;24430;-58
2021/12/11 01:41:09;;;;;;;18.60;16.70;;;;;;;;;;5049685;28;24494;-59
2021/12/11 01:43:35;;;;;;;19.85;17.85;;;;;;;;;;5042412;28;24415;-58
2021/12/11 01:46:01;;;;;;;19.25;17.25;;;;;;;;;;5059205;28;24403;-58
2021/12/11 01:48:30;;;;;;;19.10;17.20;;;;;;;;;;5059409;28;24987;-58
2021/12/11 01:50:58;;;;;;;20.40;18.20;;;;;;;;;;5061783;28;24417;-58
2021/12/11 01:53:28;;;;;;;19.33;17.25;;;;;;;;;;5052026;28;24415;-58
2021/12/11 01:55:57;;;;;;;18.97;17.07;;;;;;;;;;5047355;28;24406;-58
2021/12/11 01:58:25;;;;;;;18.10;16.20;;;;;;;;;;5052597;28;25027;-57
2021/12/11 02:00:53;;;;;;;20.17;17.67;;;;;;;;;;5056994;28;24424;-57
2021/12/11 02:03:23;;;;;;;19.35;17.30;;;;;;;;;;5060944;28;24418;-57
2021/12/11 02:05:48;;;;;;;18.88;16.95;;;;;;;;;;5056414;28;24506;-58
2021/12/11 02:08:18;;;;;;;19.50;17.50;;;;;;;;;;5045510;28;24864;-58
2021/12/11 02:10:46;;;;;;;19.00;17.10;;;;;;;;;;5061572;28;24525;-57
2021/12/11 02:13:16;;;;;;;18.73;16.83;;;;;;;;;;5053381;28;24520;-57
2021/12/11 02:15:48;;;;;;;17.93;16.03;;;;;;;;;;5042524;28;24402;-57
2021/12/11 02:18:17;;;;;;;19.10;17.20;;;;;;;;;;5053381;28;24473;-58
2021/12/11 02:20:49;;;;;;;19.48;17.38;;;;;;;;;;5061458;28;24496;-58
2021/12/11 02:23:15;;;;;;;19.95;17.85;;;;;;;;;;5055788;28;24514;-58
2021/12/11 02:25:43;;;;;;;20.15;18.13;;;;;;;;;;5066100;28;24382;-58
2021/12/11 02:28:12;;;;;;;19.90;17.80;;;;;;;;;;5058197;28;24422;-58
2021/12/11 02:30:37;;;;;;;18.85;16.92;;;;;;;;;;5054782;28;25026;-58
2021/12/11 02:33:14;;;;;;;19.53;17.53;;;;;;;;;;5056951;28;24446;-57
2021/12/11 02:35:45;;;;;;;19.90;17.80;;;;;;;;;;5061391;28;25124;-57
2021/12/11 02:38:17;;;;;;;19.85;17.85;;;;;;;;;;5061507;28;24551;-58
2021/12/11 02:40:54;;;;;;;19.17;17.17;;;;;;;;;;5063194;28;24491;-57
2021/12/11 02:43:25;;;;;;;19.70;17.60;;;;;;;;;;5062485;28;24978;-57
2021/12/11 02:46:10;;;;;;;19.58;17.58;;;;;;;;;;5048399;28;25046;-58
2021/12/11 02:48:38;;;;;;;18.30;16.40;;;;;;;;;;5062804;28;24423;-57
2021/12/11 02:51:07;;;;;;;19.70;17.70;;;;;;;;;;5061526;28;24460;-58
2021/12/11 02:53:38;;;;;;;20.23;18.02;;;;;;;;;;5054586;28;24426;-58
2021/12/11 02:56:18;;;;;;;20.30;18.17;;;;;;;;;;5059904;28;24884;-58
2021/12/11 02:58:48;;;;;;;19.60;17.58;;;;;;;;;;5057019;28;24579;-58
2021/12/11 03:01:23;;;;;;;19.20;17.20;;;;;;;;;;5060778;28;24468;-57
2021/12/11 03:03:55;;;;;;;18.90;17.00;;;;;;;;;;5047774;28;24522;-58
2021/12/11 03:06:24;;;;;;;20.60;18.40;;;;;;;;;;5060260;28;24512;-56
2021/12/11 03:08:51;;;;;;;19.45;17.35;;;;;;;;;;5057606;28;24504;-57
2021/12/11 03:11:18;;;;;;;20.25;17.83;;;;;;;;;;5062166;28;24407;-56
2021/12/11 03:13:50;;;;;;;20.42;18.20;;;;;;;;;;5062719;28;24492;-57
2021/12/11 03:16:16;;;;;;;20.60;18.40;;;;;;;;;;5049099;28;24403;-57
2021/12/11 03:18:41;;;;;;;19.60;17.60;;;;;;;;;;5049604;28;24782;-57
2021/12/11 03:21:06;;;;;;;19.70;17.60;;;;;;;;;;5040283;28;24388;-58
2021/12/11 03:23:31;;;;;;;19.88;17.70;;;;;;;;;;5053389;28;24960;-57
2021/12/11 03:25:57;;;;;;;22.33;18.93;;;;;;;;;;5057075;28;24542;-58
2021/12/11 03:28:22;;;;;;;20.10;17.97;;;;;;;;;;5061799;28;24477;-57
2021/12/11 03:30:56;;;;;;;19.83;17.73;;;;;;;;;;5061063;28;24419;-58
2021/12/11 03:33:23;;;;;;;21.30;19.00;;;;;;;;;;5047764;28;24499;-58
2021/12/11 03:35:48;;;;;;;22.00;19.10;;;;;;;;;;5059650;28;24506;-58
2021/12/11 03:38:14;;;;;;;19.43;17.30;;;;;;;;;;5062555;28;24423;-57
2021/12/11 03:40:39;;;;;;;20.60;18.40;;;;;;;;;;5051408;28;24793;-58
2021/12/11 03:43:06;;;;;;;19.90;17.67;;;;;;;;;;5045884;28;24480;-58
2021/12/11 03:45:33;;;;;;;19.20;17.20;;;;;;;;;;5064462;28;24534;-58
2021/12/11 03:48:02;;;;;;;19.08;17.00;;;;;;;;;;5059527;28;24430;-58
2021/12/11 03:50:29;;;;;;;19.00;17.00;;;;;;;;;;5056543;28;24510;-58
2021/12/11 03:52:54;;;;;;;20.83;17.92;;;;;;;;;;5060684;28;24468;-58
2021/12/11 03:55:28;;;;;;;19.60;17.37;;;;;;;;;;5063955;28;24410;-58
2021/12/11 03:57:58;;;;;;;18.00;16.10;;;;;;;;;;5060373;28;24427;-58
2021/12/11 04:00:24;;;;;;;20.73;17.10;;;;;;;;;;5060826;28;24497;-58
2021/12/11 04:02:52;;;;;;;19.10;16.98;;;;;;;;;;5059757;28;24469;-58
2021/12/11 04:05:17;;;;;;;18.60;16.65;;;;;;;;;;5059185;28;24488;-62
2021/12/11 04:07:44;;;;;;;18.93;16.83;;;;;;;;;;5061749;28;24415;-58
2021/12/11 04:10:11;;;;;;;20.15;17.52;;;;;;;;;;5062169;28;24863;-58
2021/12/11 04:12:36;;;;;;;19.17;16.58;;;;;;;;;;5058104;28;24426;-58
2021/12/11 04:15:03;;;;;;;19.70;17.60;;;;;;;;;;5057843;28;24810;-58
2021/12/11 04:17:29;;;;;;;19.73;17.50;;;;;;;;;;5054505;28;24469;-58
2021/12/11 04:19:55;;;;;;;18.70;16.73;;;;;;;;;;5060004;28;24833;-58
2021/12/11 04:22:20;;;;;;;21.67;17.70;;;;;;;;;;5062004;28;24417;-58
2021/12/11 04:24:47;;;;;;;21.40;18.27;;;;;;;;;;5045321;28;24410;-58
2021/12/11 04:27:13;;;;;;;19.40;17.13;;;;;;;;;;5058322;28;25240;-58
2021/12/11 04:29:39;;;;;;;20.23;17.60;;;;;;;;;;5058841;28;24433;-58
2021/12/11 04:32:05;;;;;;;19.70;17.60;;;;;;;;;;5055074;28;24415;-57
2021/12/11 04:34:31;;;;;;;22.60;18.87;;;;;;;;;;5056054;28;24986;-58
2021/12/11 04:37:00;;;;;;;21.08;18.63;;;;;;;;;;5057590;28;24407;-57
2021/12/11 04:39:28;;;;;;;18.23;16.42;;;;;;;;;;5058892;28;24417;-58
2021/12/11 04:42:01;;;;;;;19.27;17.17;;;;;;;;;;5043580;28;24535;-58
2021/12/11 04:44:32;;;;;;;21.35;18.45;;;;;;;;;;5061564;28;24463;-58
2021/12/11 04:46:58;;;;;;;20.27;18.08;;;;;;;;;;5054956;28;24486;-58
2021/12/11 04:49:37;;;;;;;19.73;17.60;;;;;;;;;;5059103;28;24893;-58
2021/12/11 04:59:43;;;;;;;18.60;16.60;;;;;;;;;;5062422;28;24430;-57
2021/12/11 05:05:04;;;;;;;18.42;16.52;;;;;;;;;;5056344;28;24534;-58
2021/12/11 05:07:36;;;;;;;20.05;17.85;;;;;;;;;;5049376;28;24477;-58
2021/12/11 05:10:37;;;;;;;21.27;17.30;;;;;;;;;;5060855;28;24501;-58
2021/12/11 05:13:03;;;;;;;19.40;16.70;;;;;;;;;;5056223;28;24411;-58
2021/12/11 05:15:30;;;;;;;19.00;16.08;;;;;;;;;;5051762;28;25311;-58
2021/12/11 05:17:57;;;;;;;17.50;15.70;;;;;;;;;;5040209;28;24462;-58
2021/12/11 05:20:24;;;;;;;18.30;16.13;;;;;;;;;;5058927;28;24415;-58
2021/12/11 05:22:49;;;;;;;18.52;16.00;;;;;;;;;;5054491;28;24451;-58
2021/12/11 05:25:15;;;;;;;19.07;15.97;;;;;;;;;;5058094;28;24445;-58
2021/12/11 05:27:41;;;;;;;17.40;15.53;;;;;;;;;;5043620;28;25513;-58
2021/12/11 05:30:09;;;;;;;17.88;15.90;;;;;;;;;;5059120;28;24804;-58
2021/12/11 05:32:34;;;;;;;18.48;16.48;;;;;;;;;;5059860;28;24749;-58
2021/12/11 05:35:00;;;;;;;18.07;15.50;;;;;;;;;;5058843;28;24510;-57
2021/12/11 05:37:25;;;;;;;18.43;16.20;;;;;;;;;;5049113;28;24501;-58
2021/12/11 05:39:50;;;;;;;17.80;15.43;;;;;;;;;;5053206;28;24495;-58
2021/12/11 05:42:16;;;;;;;18.87;16.60;;;;;;;;;;5043740;28;24500;-58
2021/12/11 05:44:41;;;;;;;17.90;15.13;;;;;;;;;;5061772;28;24903;-58
2021/12/11 05:47:07;;;;;;;19.00;16.15;;;;;;;;;;5058548;28;24418;-57
2021/12/11 05:49:33;;;;;;;17.90;15.20;;;;;;;;;;5056575;28;24421;-58
2021/12/11 05:51:59;;;;;;;18.47;16.10;;;;;;;;;;5057564;28;24468;-57
2021/12/11 05:54:25;;;;;;;17.42;15.45;;;;;;;;;;5061379;28;25031;-58
2021/12/11 05:56:54;;;;;;;18.20;15.00;;;;;;;;;;5065574;28;24837;-58
2021/12/11 05:59:19;;;;;;;17.60;15.60;;;;;;;;;;5059701;28;25002;-58
2021/12/11 06:01:46;;;;;;;16.40;14.70;;;;;;;;;;5062010;28;24553;-58
2021/12/11 06:04:14;;;;;;;17.90;15.82;;;;;;;;;;5061141;28;24504;-60
2021/12/11 06:06:40;;;;;;;18.55;15.65;;;;;;;;;;5059908;28;24451;-60
2021/12/11 06:09:06;;;;;;;17.40;15.37;;;;;;;;;;5053526;28;24458;-59
2021/12/11 06:11:31;;;;;;;17.65;15.75;;;;;;;;;;5058238;28;24430;-59
2021/12/11 06:13:56;;;;;;;18.00;15.87;;;;;;;;;;5061864;28;24419;-59
2021/12/11 06:16:22;;;;;;;17.73;15.30;;;;;;;;;;5062667;28;24860;-59
2021/12/11 06:18:47;;;;;;;18.70;15.50;;;;;;;;;;5061557;28;24479;-60
2021/12/11 06:21:13;;;;;;;17.97;15.00;;;;;;;;;;5064137;28;24506;-60
2021/12/11 06:23:38;;;;;;;17.10;15.30;;;;;;;;;;5063112;28;24415;-59
2021/12/11 06:26:04;;;;;;;18.48;14.82;;;;;;;;;;5062062;28;24418;-60
2021/12/11 06:28:29;;;;;;;19.00;15.20;;;;;;;;;;5063299;28;24433;-59
2021/12/11 06:30:58;;;;;;;17.53;15.73;;;;;;;;;;5061847;28;24425;-60
2021/12/11 06:33:23;;;;;;;18.05;15.40;;;;;;;;;;5057934;28;24469;-59
2021/12/11 06:36:00;;;;;;;18.50;15.70;;;;;;;;;;5061787;28;24413;-60
2021/12/11 06:38:27;;;;;;;17.90;15.93;;;;;;;;;;5064969;28;24537;-59
2021/12/11 06:40:52;;;;;;;17.83;15.45;;;;;;;;;;5061713;28;24446;-60
2021/12/11 06:43:17;;;;;;;17.63;14.67;;;;;;;;;;5061220;28;24454;-60
2021/12/11 06:45:43;;;;;;;18.90;15.90;;;;;;;;;;5051988;28;24520;-58
2021/12/11 06:48:09;;;;;;;19.43;16.50;;;;;;;;;;5062625;28;24555;-57
2021/12/11 06:50:34;;;;;;;17.87;15.83;;;;;;;;;;5063640;28;24475;-57
2021/12/11 06:53:01;;;;;;;19.50;14.90;;;;;;;;;;5061166;28;24979;-57
2021/12/11 06:55:27;;;;;;;17.90;14.43;;;;;;;;;;5060197;28;24537;-57
2021/12/11 06:57:52;;;;;;;18.80;15.77;;;;;;;;;;5061855;28;24522;-57
2021/12/11 07:00:19;;;;;;;19.00;16.27;;;;;;;;;;5063057;28;24841;-57
2021/12/11 07:02:44;;;;;;;17.98;15.50;;;;;;;;;;5061521;28;24468;-57
2021/12/11 07:05:10;;;;;;;18.17;15.57;;;;;;;;;;5060871;28;24410;-57
2021/12/11 07:07:36;;;;;;;19.45;16.40;;;;;;;;;;5064377;28;24540;-58
2021/12/11 07:10:04;;;;;;;19.17;15.93;;;;;;;;;;5058532;28;24415;-58
2021/12/11 07:12:29;;;;;;;19.88;16.50;;;;;;;;;;5054648;28;24468;-58
2021/12/11 07:14:54;;;;;;;17.07;15.10;;;;;;;;;;5059975;28;24407;-58
2021/12/11 07:17:20;;;;;;;16.17;14.47;;;;;;;;;;5057935;28;24506;-58
2021/12/11 07:19:45;;;;;;;16.60;14.80;;;;;;;;;;5061624;28;24403;-58
2021/12/11 07:22:11;;;;;;;17.38;15.48;;;;;;;;;;5057316;28;24422;-58
2021/12/11 07:24:40;;;;;;;17.30;15.43;;;;;;;;;;5057526;28;24407;-58
2021/12/11 07:27:07;;;;;;;19.98;16.38;;;;;;;;;;5056699;28;24476;-58
2021/12/11 07:29:32;;;;;;;19.05;15.75;;;;;;;;;;5058786;28;24410;-59
2021/12/11 07:31:58;;;;;;;19.27;16.13;;;;;;;;;;5062027;28;24974;-58
2021/12/11 07:34:24;;;;;;;19.55;16.33;;;;;;;;;;5059840;28;24449;-58
2021/12/11 07:36:51;;;;;;;18.13;15.57;;;;;;;;;;5063358;28;24465;-58
2021/12/11 07:39:16;;;;;;;19.05;16.23;;;;;;;;;;5057957;28;24765;-58
2021/12/11 07:41:42;;;;;;;17.50;15.50;;;;;;;;;;5059563;28;24417;-58
2021/12/11 07:44:07;;;;;;;21.57;18.27;;;;;;;;;;5060002;28;25007;-58
2021/12/11 07:46:34;;;;;;;22.20;18.40;;;;;;;;;;5063962;28;24415;-57
2021/12/11 07:48:59;;;;;;;20.40;17.00;;;;;;;;;;5062176;28;24402;-58
2021/12/11 07:51:26;;;;;;;20.17;17.03;;;;;;;;;;5054383;28;24804;-58
2021/12/11 07:53:52;;;;;;;19.48;17.02;;;;;;;;;;5058141;28;24987;-58
2021/12/11 07:56:18;;;;;;;19.45;16.40;;;;;;;;;;5061215;28;24991;-58
2021/12/11 07:58:44;;;;;;;20.30;16.08;;;;;;;;;;5062675;28;24740;-58
2021/12/11 08:01:09;;;;;;;17.52;15.63;;;;;;;;;;5058327;28;24982;-58
2021/12/11 08:03:35;;;;;;;19.40;16.30;;;;;;;;;;5055985;28;24525;-58
2021/12/11 08:06:02;;;;;;;18.35;16.35;;;;;;;;;;5060797;28;24544;-58
2021/12/11 08:08:27;;;;;;;18.95;16.40;;;;;;;;;;5058849;28;24957;-58
2021/12/11 08:10:55;;;;;;;19.50;16.80;;;;;;;;;;5058095;28;24475;-58
2021/12/11 08:13:20;;;;;;;22.13;19.23;;;;;;;;;;5059429;28;24431;-58
2021/12/11 08:15:45;;;;;;;19.83;17.80;;;;;;;;;;5058880;28;24418;-58
2021/12/11 08:18:12;;;;;;;19.55;17.15;;;;;;;;;;5055986;28;24899;-58
2021/12/11 08:20:39;;;;;;;22.85;18.90;;;;;;;;;;5060620;28;24728;-59
2021/12/11 08:23:05;;;;;;;21.13;18.75;;;;;;;;;;5059480;28;24417;-59
2021/12/11 08:25:31;;;;;;;23.10;19.30;;;;;;;;;;5058560;28;25325;-60
2021/12/11 08:27:57;;;;;;;20.40;17.90;;;;;;;;;;5059477;28;24411;-60
2021/12/11 08:30:24;;;;;;;19.33;16.80;;;;;;;;;;5059590;28;24491;-60
2021/12/11 08:32:50;;;;;;;21.50;17.60;;;;;;;;;;5059089;28;24395;-60
2021/12/11 08:35:15;;;;;;;20.90;17.10;;;;;;;;;;5062563;28;25013;-59
2021/12/11 08:37:42;;;;;;;21.27;16.97;;;;;;;;;;5063208;28;24550;-60
2021/12/11 08:40:10;;;;;;;23.02;16.80;;;;;;;;;;5059539;28;24630;-60
2021/12/11 08:42:35;;;;;;;20.38;17.13;;;;;;;;;;5057427;28;24387;-60
2021/12/11 08:45:09;;;;;;;22.30;18.20;;;;;;;;;;5060523;28;24757;-59
2021/12/11 08:47:36;;;;;;;23.95;19.50;;;;;;;;;;5062608;28;24615;-60
2021/12/11 08:50:01;;;;;;;23.38;19.23;;;;;;;;;;5060599;28;24861;-59
2021/12/11 08:52:28;;;;;;;20.73;18.27;;;;;;;;;;5058924;28;24522;-59
2021/12/11 08:54:55;;;;;;;22.17;18.65;;;;;;;;;;5057173;28;24460;-58
2021/12/11 08:57:22;;;;;;;22.00;19.10;;;;;;;;;;5057920;28;24430;-58
2021/12/11 08:59:50;;;;;;;22.73;19.08;;;;;;;;;;5060307;28;24423;-59
2021/12/11 09:02:20;;;;;;;21.65;19.08;;;;;;;;;;5061989;28;24706;-59
2021/12/11 09:04:53;;;;;;;22.45;18.73;;;;;;;;;;5059533;28;24450;-59
2021/12/11 09:07:22;;;;;;;19.52;17.45;;;;;;;;;;5062193;28;24489;-59
2021/12/11 09:09:50;;;;;;;19.20;17.20;;;;;;;;;;5056180;28;24421;-58
2021/12/11 09:12:38;;;;;;;20.63;18.43;;;;;;;;;;5047221;28;25026;-58
2021/12/11 09:15:10;;;;;;;21.02;18.42;;;;;;;;;;5043751;28;24449;-59
2021/12/11 09:17:38;;;;;;;21.52;19.25;;;;;;;;;;5042430;28;24909;-59
2021/12/11 09:20:08;;;;;;;22.85;19.88;;;;;;;;;;5060299;28;24418;-59
2021/12/11 09:22:35;;;;;;;22.33;19.33;;;;;;;;;;5058644;28;24506;-59
2021/12/11 09:25:10;;;;;;;21.92;19.00;;;;;;;;;;5056664;28;24415;-59
2021/12/11 09:27:36;;;;;;;22.50;19.63;;;;;;;;;;5058012;28;24968;-59
2021/12/11 09:30:03;;;;;;;21.35;19.05;;;;;;;;;;5063383;28;25066;-59
2021/12/11 09:32:35;;;;;;;23.50;20.20;;;;;;;;;;5066038;28;24507;-59
2021/12/11 09:35:21;;;;;;;20.63;18.10;;;;;;;;;;5064787;28;24509;-59
2021/12/11 09:37:48;;;;;;;21.80;19.50;;;;;;;;;;5064597;28;24513;-60
2021/12/11 09:40:15;;;;;;;23.02;20.52;;;;;;;;;;5062038;28;24399;-60
2021/12/11 09:42:40;;;;;;;23.38;19.90;;;;;;;;;;5064798;28;24441;-60
2021/12/11 09:45:11;;;;;;;23.15;20.65;;;;;;;;;;5065911;28;25149;-59
2021/12/11 09:47:40;;;;;;;22.20;19.80;;;;;;;;;;5066748;28;24398;-59
2021/12/11 09:50:13;;;;;;;23.50;20.90;;;;;;;;;;5064411;28;24563;-59
2021/12/11 09:52:38;;;;;;;24.23;21.08;;;;;;;;;;5064204;28;24434;-59
2021/12/11 09:55:11;;;;;;;25.60;21.50;;;;;;;;;;5060278;28;25062;-59
2021/12/11 09:57:38;;;;;;;24.90;22.20;;;;;;;;;;5062187;28;24505;-59
2021/12/11 10:00:15;;;;;;;26.75;22.50;;;;;;;;;;5060659;28;24765;-58
2021/12/11 10:02:41;;;;;;;24.27;21.25;;;;;;;;;;5061058;28;24948;-59
2021/12/11 10:05:18;;;;;;;23.08;20.58;;;;;;;;;;5064564;28;24414;-59
2021/12/11 10:08:00;;;;;;;26.02;22.15;;;;;;;;;;5064776;28;24588;-59
2021/12/11 10:10:25;;;;;;;26.55;22.35;;;;;;;;;;5065734;28;24441;-60
2021/12/11 10:12:54;;;;;;;25.63;22.27;;;;;;;;;;5060719;28;25007;-60
2021/12/11 10:15:19;;;;;;;25.77;22.10;;;;;;;;;;5045281;28;24442;-60
2021/12/11 10:17:59;;;;;;;28.50;23.10;;;;;;;;;;5056639;28;24430;-60
2021/12/11 10:20:27;;;;;;;26.25;23.23;;;;;;;;;;5062710;28;24576;-60
2021/12/11 10:22:59;;;;;;;25.92;23.08;;;;;;;;;;5062336;28;24411;-60
2021/12/11 10:25:28;;;;;;;25.23;21.80;;;;;;;;;;5046385;28;24497;-59
2021/12/11 10:27:53;;;;;;;24.98;22.27;;;;;;;;;;5055669;28;24968;-59
2021/12/11 10:30:22;;;;;;;26.60;22.80;;;;;;;;;;5061687;28;24409;-60
2021/12/11 10:32:48;;;;;;;26.13;22.88;;;;;;;;;;5060719;28;24579;-59
2021/12/11 10:35:15;;;;;;;25.27;22.43;;;;;;;;;;5062631;28;24458;-59
2021/12/11 10:37:41;;;;;;;25.52;22.00;;;;;;;;;;5048157;28;24432;-59
2021/12/11 10:40:12;;;;;;;27.80;23.30;;;;;;;;;;5056514;28;25026;-58
2021/12/11 10:42:37;;;;;;;24.05;21.45;;;;;;;;;;5042487;28;24730;-59
2021/12/11 10:45:06;;;;;;;26.13;22.60;;;;;;;;;;5062708;28;24968;-58
2021/12/11 10:47:34;;;;;;;26.25;22.35;;;;;;;;;;5064232;28;24410;-60
2021/12/11 10:50:00;;;;;;;24.38;21.25;;;;;;;;;;5057413;28;24526;-59
2021/12/11 10:52:28;;;;;;;24.63;21.63;;;;;;;;;;5058721;28;24414;-58
2021/12/11 10:54:54;;;;;;;25.05;21.02;;;;;;;;;;5047609;28;24419;-59
2021/12/11 10:57:20;;;;;;;22.98;20.58;;;;;;;;;;5059524;28;24426;-59
2021/12/11 10:59:47;;;;;;;24.00;21.40;;;;;;;;;;5049307;28;24419;-59
2021/12/11 11:02:14;;;;;;;24.33;21.73;;;;;;;;;;5059628;28;24419;-59
2021/12/11 11:04:42;;;;;;;24.13;21.00;;;;;;;;;;5060248;28;24459;-59
2021/12/11 11:07:08;;;;;;;25.10;22.38;;;;;;;;;;5064186;28;25049;-59
2021/12/11 11:09:33;;;;;;;24.77;21.30;;;;;;;;;;5062249;28;24434;-59
2021/12/11 11:12:02;;;;;;;22.83;20.30;;;;;;;;;;5058624;28;24985;-59
2021/12/11 11:14:29;;;;;;;24.10;21.50;;;;;;;;;;5040235;28;24875;-59
2021/12/11 11:16:56;;;;;;;26.92;21.70;;;;;;;;;;5044309;28;24425;-59
2021/12/11 11:19:23;;;;;;;26.38;22.88;;;;;;;;;;5062701;28;24454;-58
2021/12/11 11:21:50;;;;;;;25.83;22.65;;;;;;;;;;5062515;28;24406;-58
2021/12/11 11:24:16;;;;;;;25.15;22.15;;;;;;;;;;5062508;28;24447;-59
2021/12/11 11:26:43;;;;;;;26.70;23.57;;;;;;;;;;5057800;28;24483;-59
2021/12/11 11:29:10;;;;;;;25.87;22.87;;;;;;;;;;5052549;28;24428;-59
2021/12/11 11:31:36;;;;;;;24.52;21.70;;;;;;;;;;5047839;28;24418;-58
2021/12/11 11:34:06;;;;;;;28.25;24.05;;;;;;;;;;5052872;28;24461;-59
2021/12/11 11:36:32;;;;;;;25.65;22.30;;;;;;;;;;5049085;28;24937;-59
2021/12/11 11:38:59;;;;;;;24.40;21.80;;;;;;;;;;5054308;28;24430;-59
2021/12/11 11:41:30;;;;;;;26.40;22.23;;;;;;;;;;5063326;28;24383;-59
2021/12/11 11:43:56;;;;;;;24.15;21.58;;;;;;;;;;5058431;28;24533;-59
2021/12/11 11:46:24;;;;;;;25.45;22.40;;;;;;;;;;5059671;28;24407;-59
2021/12/11 11:48:50;;;;;;;25.67;22.88;;;;;;;;;;5057581;28;24480;-59
2021/12/11 11:51:21;;;;;;;27.90;23.98;;;;;;;;;;5060589;28;24443;-58
2021/12/11 11:53:47;;;;;;;27.08;23.92;;;;;;;;;;5052315;28;24457;-59
2021/12/11 11:56:14;;;;;;;26.20;23.15;;;;;;;;;;5042062;28;24454;-60
2021/12/11 11:58:39;;;;;;;24.67;21.98;;;;;;;;;;5046375;28;24438;-60
2021/12/11 12:01:11;;;;;;;25.40;22.33;;;;;;;;;;5052777;28;24396;-60
2021/12/11 12:03:36;;;;;;;24.07;21.27;;;;;;;;;;5048083;28;24564;-60
2021/12/11 12:06:03;;;;;;;24.77;22.17;;;;;;;;;;5061860;28;24991;-58
2021/12/11 12:08:28;;;;;;;25.48;22.77;;;;;;;;;;5063251;28;24405;-58
2021/12/11 12:10:54;;;;;;;24.57;22.07;;;;;;;;;;5059828;28;24709;-59
2021/12/11 12:13:23;;;;;;;23.15;20.73;;;;;;;;;;5061167;28;24446;-58
2021/12/11 12:15:50;;;;;;;26.27;23.47;;;;;;;;;;5040930;28;24774;-59
2021/12/11 12:18:16;;;;;;;25.95;23.15;;;;;;;;;;5046844;28;24431;-59
2021/12/11 12:20:41;;;;;;;28.13;25.13;;;;;;;;;;5062882;28;24982;-58
2021/12/11 12:23:08;;;;;;;28.80;25.57;;;;;;;;;;5059221;28;24407;-60
2021/12/11 12:25:34;;;;;;;27.90;25.00;;;;;;;;;;5054943;28;24472;-58
2021/12/11 12:27:59;;;;;;;27.73;24.60;;;;;;;;;;5060283;28;24414;-58
2021/12/11 12:30:28;;;;;;;28.50;25.40;;;;;;;;;;5053814;28;24512;-59
2021/12/11 12:32:55;;;;;;;28.20;25.27;;;;;;;;;;5055430;28;24414;-60
2021/12/11 12:35:21;;;;;;;28.00;24.98;;;;;;;;;;5053434;28;24429;-60
2021/12/11 12:37:47;;;;;;;28.80;25.75;;;;;;;;;;5057929;28;24438;-59
2021/12/11 12:40:16;;;;;;;28.30;25.30;;;;;;;;;;5059000;28;24413;-60
2021/12/11 12:42:55;;;;;;;26.70;23.83;;;;;;;;;;5045346;28;20776;-60
2021/12/11 12:45:31;;;;;;;28.60;25.50;;;;;;;;;;5042133;28;24986;-59
2021/12/11 12:47:59;;;;;;;27.15;24.27;;;;;;;;;;5054016;28;24995;-60
2021/12/11 12:50:31;;;;;;;29.65;26.55;;;;;;;;;;5059209;28;25178;-60
2021/12/11 12:52:57;;;;;;;28.10;25.10;;;;;;;;;;5055579;28;24509;-60
2021/12/11 12:55:26;;;;;;;29.95;26.75;;;;;;;;;;5058586;28;25046;-59
2021/12/11 12:57:53;;;;;;;31.17;27.47;;;;;;;;;;5057261;28;25142;-59
2021/12/11 13:00:21;;;;;;;28.58;25.25;;;;;;;;;;5048258;28;24473;-60
2021/12/11 13:02:47;;;;;;;29.67;25.20;;;;;;;;;;5057527;28;24425;-60
2021/12/11 13:05:19;;;;;;;30.42;26.60;;;;;;;;;;5056335;28;24844;-63
2021/12/11 13:07:45;;;;;;;30.98;27.10;;;;;;;;;;5059276;28;24534;-59
2021/12/11 13:10:13;;;;;;;30.83;26.60;;;;;;;;;;5056607;28;24844;-58
2021/12/11 13:12:41;;;;;;;32.70;26.80;;;;;;;;;;5052382;28;24485;-61
2021/12/11 13:15:09;;;;;;;33.47;27.90;;;;;;;;;;5057499;28;24383;-61
2021/12/11 13:17:39;;;;;;;32.00;27.23;;;;;;;;;;5050734;28;24506;-61
2021/12/11 13:20:11;;;;;;;31.23;26.00;;;;;;;;;;5057381;28;24921;-60
2021/12/11 13:22:38;;;;;;;29.63;25.50;;;;;;;;;;5054470;28;24896;-61
2021/12/11 13:25:09;;;;;;;33.22;27.17;;;;;;;;;;5051223;28;24481;-61
2021/12/11 13:27:34;;;;;;;31.80;27.50;;;;;;;;;;5046555;28;24472;-58
2021/12/11 13:30:02;;;;;;;31.50;27.17;;;;;;;;;;5050606;28;24773;-60
2021/12/11 13:32:28;;;;;;;30.65;27.10;;;;;;;;;;5042692;28;24408;-60
2021/12/11 13:34:57;;;;;;;31.52;27.33;;;;;;;;;;5051367;28;24441;-61
2021/12/11 13:37:23;;;;;;;32.58;28.38;;;;;;;;;;5051947;28;24500;-61
2021/12/11 13:39:49;;;;;;;34.05;28.17;;;;;;;;;;5046376;28;24415;-58
2021/12/11 13:42:20;;;;;;;31.63;27.20;;;;;;;;;;5057272;28;24973;-58
2021/12/11 13:44:48;;;;;;;32.22;26.63;;;;;;;;;;5056033;28;24755;-60
2021/12/11 13:47:15;;;;;;;34.08;28.33;;;;;;;;;;5043568;28;24515;-60
2021/12/11 13:49:40;;;;;;;36.35;30.02;;;;;;;;;;5052345;28;24513;-59
2021/12/11 13:52:06;;;;;;;35.27;28.93;;;;;;;;;;5077786;28;24509;-59
2021/12/11 13:54:32;;;;;;;33.37;28.17;;;;;;;;;;5057867;28;24407;-59
2021/12/11 13:56:59;;;;;;;32.85;27.02;;;;;;;;;;5048938;28;24843;-59
2021/12/11 13:59:25;;;;;;;31.55;27.70;;;;;;;;;;5050979;28;24515;-59
2021/12/11 14:01:51;;;;;;;30.92;26.27;;;;;;;;;;5052275;28;24407;-58
2021/12/11 14:04:18;;;;;;;32.50;28.02;;;;;;;;;;5054524;28;24419;-59
2021/12/11 14:06:52;;;;;;;36.00;28.20;;;;;;;;;;5053309;28;24427;-58
2021/12/11 14:09:21;;;;;;;34.33;27.80;;;;;;;;;;5051925;28;24994;-58
2021/12/11 14:11:46;;;;;;;31.58;26.25;;;;;;;;;;5040327;28;24434;-58
2021/12/11 14:14:12;;;;;;;32.93;27.57;;;;;;;;;;5054546;28;24419;-58
2021/12/11 14:16:38;;;;;;;32.20;26.30;;;;;;;;;;5060259;28;24421;-61
2021/12/11 14:19:04;;;;;;;31.73;26.77;;;;;;;;;;5060748;28;24430;-58
2021/12/11 14:21:29;;;;;;;29.60;26.23;;;;;;;;;;5050125;28;24491;-59
2021/12/11 14:23:54;;;;;;;31.90;27.13;;;;;;;;;;5042539;28;24879;-59
2021/12/11 14:26:22;;;;;;;31.53;26.60;;;;;;;;;;5051943;28;24422;-59
2021/12/11 14:28:48;;;;;;;34.17;27.70;;;;;;;;;;5062320;28;24458;-59
2021/12/11 14:31:15;;;;;;;35.30;28.13;;;;;;;;;;5055070;28;24423;-59
2021/12/11 14:33:40;;;;;;;30.95;26.35;;;;;;;;;;5059224;28;24461;-59